Time;durP1;ratioP1;P1;durP2;ratioP2;P2;SDS_P1;SDS_P2;PMS_P1;PMS_P2;Temp;Humidity;BMP_temperature;BMP_pressure;BME280_temperature;BME280_humidity;BME280_pressure;Samples;Min_cycle;Max_cycle;Signal;HPM_P1;HPM_P2
2022/12/23 00:00:56;;;;;;;15.73;9.77;;;1.20;99.90;;;;;;5007201;28;20204;-65
2022/12/23 00:03:23;;;;;;;12.63;9.93;;;1.30;99.90;;;;;;5018252;28;20220;-65
2022/12/23 00:05:49;;;;;;;13.50;10.00;;;1.30;99.90;;;;;;5030539;28;20431;-65
2022/12/23 00:08:15;;;;;;;12.50;9.13;;;1.30;99.90;;;;;;5033068;28;20445;-65
2022/12/23 00:10:40;;;;;;;11.63;9.30;;;1.40;99.90;;;;;;5016253;28;20433;-65
2022/12/23 00:16:10;;;;;;;14.40;10.60;;;1.40;99.90;;;;;;5026904;28;20201;-65
2022/12/23 00:18:36;;;;;;;9.93;8.37;;;1.40;99.90;;;;;;5035626;28;20432;-65
2022/12/23 00:21:05;;;;;;;13.10;10.13;;;1.40;99.90;;;;;;5018343;28;20496;-65
2022/12/23 00:23:36;;;;;;;14.53;9.80;;;1.40;99.90;;;;;;5025571;28;20473;-65
2022/12/23 00:26:02;;;;;;;13.50;10.17;;;1.30;99.40;;;;;;5017970;28;20430;-65
2022/12/23 00:28:28;;;;;;;12.20;9.27;;;1.30;99.80;;;;;;5028562;28;20418;-65
2022/12/23 00:31:05;;;;;;;10.33;8.30;;;1.30;99.90;;;;;;5014810;28;20430;-65
2022/12/23 00:33:40;;;;;;;11.90;8.50;;;1.30;99.90;;;;;;5031756;28;20430;-65
2022/12/23 00:36:13;;;;;;;11.97;8.97;;;1.30;99.90;;;;;;5034481;28;20448;-65
2022/12/23 00:44:07;;;;;;;11.93;8.53;;;1.30;99.90;;;;;;5034518;28;20512;-65
2022/12/23 00:46:33;;;;;;;12.57;8.50;;;1.30;99.90;;;;;;5033402;28;20556;-65
2022/12/23 00:51:43;;;;;;;12.80;10.03;;;1.40;99.90;;;;;;5017701;28;20220;-65
2022/12/23 00:54:09;;;;;;;13.20;9.83;;;1.40;99.90;;;;;;5001624;28;20442;-65
2022/12/23 00:56:35;;;;;;;10.87;8.77;;;1.40;99.90;;;;;;5032758;28;20261;-65
2022/12/23 00:59:00;;;;;;;13.33;9.47;;;1.40;99.90;;;;;;5047863;28;20203;-65
2022/12/23 01:06:57;;;;;;;14.40;9.37;;;1.40;99.90;;;;;;5022012;28;20397;-65
2022/12/23 01:09:23;;;;;;;15.53;10.10;;;1.40;99.90;;;;;;5030461;28;20422;-65
2022/12/23 01:11:48;;;;;;;13.50;9.77;;;1.40;99.90;;;;;;5018510;28;20202;-65
2022/12/23 01:14:16;;;;;;;12.97;9.97;;;1.40;99.90;;;;;;5007005;28;20191;-65
2022/12/23 01:16:42;;;;;;;14.77;9.17;;;1.40;99.90;;;;;;5029416;28;20191;-65
2022/12/23 01:19:07;;;;;;;15.43;10.13;;;1.40;99.90;;;;;;5003535;28;20477;-65
2022/12/23 01:21:33;;;;;;;11.60;9.20;;;1.40;99.90;;;;;;5001693;28;20282;-65
2022/12/23 01:23:59;;;;;;;15.03;10.10;;;1.40;99.90;;;;;;5030771;28;20191;-65
2022/12/23 01:26:25;;;;;;;11.57;9.60;;;1.40;99.90;;;;;;5030155;28;20215;-65
2022/12/23 01:28:55;;;;;;;12.17;9.13;;;1.50;99.90;;;;;;5016125;28;20217;-65
2022/12/23 01:31:23;;;;;;;14.97;11.50;;;1.50;99.90;;;;;;5029429;28;20441;-65
2022/12/23 01:33:48;;;;;;;17.37;12.83;;;1.50;99.90;;;;;;5009010;28;20444;-65
2022/12/23 01:36:14;;;;;;;16.90;12.70;;;1.40;99.90;;;;;;5036740;28;20567;-65
2022/12/23 01:38:40;;;;;;;15.63;11.57;;;1.40;99.90;;;;;;5011184;28;20199;-65
2022/12/23 01:41:06;;;;;;;15.57;11.73;;;1.40;99.90;;;;;;4996325;28;20251;-65
2022/12/23 01:43:45;;;;;;;14.73;10.43;;;1.40;99.90;;;;;;5030725;28;20231;-65
2022/12/23 01:46:10;;;;;;;16.57;11.07;;;1.40;99.90;;;;;;5033052;28;20240;-65
2022/12/23 01:48:37;;;;;;;15.77;10.80;;;1.40;99.90;;;;;;5031518;28;20438;-65
2022/12/23 01:51:11;;;;;;;14.53;9.73;;;1.40;99.90;;;;;;5012716;28;20190;-65
2022/12/23 01:53:43;;;;;;;12.40;9.43;;;1.40;99.90;;;;;;5032276;28;20446;-65
2022/12/23 01:56:18;;;;;;;13.80;10.37;;;1.40;99.90;;;;;;5023654;28;20434;-65
2022/12/23 01:58:52;;;;;;;13.77;10.10;;;1.30;99.90;;;;;;5036564;28;20440;-65
2022/12/23 02:04:06;;;;;;;14.97;11.03;;;1.30;99.90;;;;;;5046371;28;20509;-65
2022/12/23 02:09:29;;;;;;;15.57;11.73;;;1.20;99.90;;;;;;5018441;28;20426;-65
2022/12/23 02:12:23;;;;;;;13.73;9.83;;;1.20;99.90;;;;;;5018587;28;20465;-65
2022/12/23 02:18:21;;;;;;;15.47;11.53;;;1.20;99.90;;;;;;5033498;28;20519;-65
2022/12/23 02:21:04;;;;;;;16.43;11.57;;;1.10;99.90;;;;;;5026210;28;20437;-65
2022/12/23 02:24:08;;;;;;;16.10;12.13;;;1.10;99.90;;;;;;5048029;28;20465;-65
2022/12/23 02:26:49;;;;;;;17.57;12.83;;;1.10;99.90;;;;;;5030835;28;20529;-65
2022/12/23 02:29:47;;;;;;;15.27;12.10;;;1.10;99.90;;;;;;5034071;28;20432;-65
2022/12/23 02:32:40;;;;;;;18.13;11.47;;;1.10;99.90;;;;;;5035541;28;20430;-65
2022/12/23 02:35:24;;;;;;;19.77;13.53;;;1.10;99.90;;;;;;5027704;28;20442;-65
2022/12/23 02:38:09;;;;;;;19.87;13.57;;;1.10;99.90;;;;;;5023353;28;20512;-65
2022/12/23 02:40:48;;;;;;;19.90;12.77;;;1.10;99.90;;;;;;5030338;28;20430;-65
2022/12/23 02:43:42;;;;;;;20.20;12.70;;;1.10;99.90;;;;;;5030165;28;20462;-65
2022/12/23 02:46:31;;;;;;;18.00;11.73;;;1.10;99.90;;;;;;5018411;28;20488;-65
2022/12/23 02:49:02;;;;;;;15.83;11.00;;;1.10;99.90;;;;;;5035854;28;20441;-65
2022/12/23 02:51:36;;;;;;;16.97;11.80;;;1.10;99.90;;;;;;5034761;28;20464;-65
2022/12/23 02:54:06;;;;;;;17.13;11.27;;;1.10;99.90;;;;;;5035905;28;20460;-65
2022/12/23 02:56:36;;;;;;;13.23;9.83;;;1.20;99.90;;;;;;5033499;28;20488;-65
2022/12/23 02:59:13;;;;;;;16.97;12.30;;;1.20;99.90;;;;;;5035824;28;20457;-65
2022/12/23 03:01:41;;;;;;;20.27;12.50;;;1.10;99.90;;;;;;5025622;28;20413;-65
2022/12/23 03:04:07;;;;;;;13.83;10.43;;;1.10;99.80;;;;;;5035461;28;20479;-65
2022/12/23 03:06:42;;;;;;;16.23;11.37;;;1.10;99.90;;;;;;5014458;28;20445;-65
2022/12/23 03:09:12;;;;;;;13.40;10.93;;;1.20;99.90;;;;;;5027235;28;20413;-65
2022/12/23 03:11:40;;;;;;;12.23;9.87;;;1.20;99.90;;;;;;5032887;28;20430;-65
2022/12/23 03:14:09;;;;;;;12.23;9.60;;;1.20;99.90;;;;;;5036600;28;20463;-65
2022/12/23 03:16:44;;;;;;;11.87;8.90;;;1.20;99.90;;;;;;5032642;28;20442;-65
2022/12/23 03:19:28;;;;;;;11.67;9.80;;;1.20;99.90;;;;;;5032879;28;20462;-65
2022/12/23 03:22:07;;;;;;;13.00;10.63;;;1.20;99.90;;;;;;5016381;28;20458;-65
2022/12/23 03:25:03;;;;;;;11.03;9.27;;;1.20;99.90;;;;;;5018270;28;20438;-65
2022/12/23 03:27:53;;;;;;;16.33;10.27;;;1.30;99.90;;;;;;5045091;28;20437;-65
2022/12/23 03:30:21;;;;;;;16.87;9.43;;;1.30;99.90;;;;;;5024621;28;20439;-65
2022/12/23 03:32:58;;;;;;;15.53;10.03;;;1.30;99.90;;;;;;5031375;28;20423;-65
2022/12/23 03:35:29;;;;;;;14.93;9.47;;;1.40;99.90;;;;;;5025687;28;20441;-65
2022/12/23 03:37:57;;;;;;;11.17;8.40;;;1.40;99.90;;;;;;5033618;28;20437;-65
2022/12/23 03:40:32;;;;;;;10.27;8.33;;;1.40;99.90;;;;;;5019755;28;20438;-65
2022/12/23 03:43:07;;;;;;;11.60;8.63;;;1.40;99.90;;;;;;5034863;28;20461;-65
2022/12/23 03:45:40;;;;;;;10.97;7.30;;;1.40;99.90;;;;;;5031244;28;20481;-65
2022/12/23 03:48:16;;;;;;;11.73;8.43;;;1.40;99.90;;;;;;5029684;28;20433;-65
2022/12/23 03:50:44;;;;;;;11.10;8.30;;;1.40;99.90;;;;;;5034813;28;20444;-65
2022/12/23 03:53:20;;;;;;;9.23;6.97;;;1.40;99.90;;;;;;5017191;28;20521;-65
2022/12/23 03:56:00;;;;;;;9.60;7.30;;;1.40;99.90;;;;;;5031976;28;20437;-65
2022/12/23 03:59:16;;;;;;;12.40;7.97;;;1.50;99.90;;;;;;5034545;28;20418;-65
2022/12/23 04:01:45;;;;;;;11.17;7.80;;;1.50;99.90;;;;;;5032911;28;20441;-65
2022/12/23 04:04:32;;;;;;;12.73;9.03;;;1.50;99.90;;;;;;5047470;28;20462;-65
2022/12/23 04:07:30;;;;;;;10.40;8.07;;;1.60;99.90;;;;;;5031082;28;20437;-65
2022/12/23 04:09:57;;;;;;;9.80;7.93;;;1.60;99.90;;;;;;5023377;28;20437;-65
2022/12/23 04:12:24;;;;;;;9.23;7.30;;;1.60;99.90;;;;;;4996405;28;20426;-65
2022/12/23 04:14:51;;;;;;;10.03;7.50;;;1.70;99.90;;;;;;5028591;28;21058;-65
2022/12/23 04:17:18;;;;;;;8.17;6.10;;;1.70;99.90;;;;;;5022652;28;20417;-65
2022/12/23 04:19:44;;;;;;;11.37;7.37;;;1.70;99.90;;;;;;5018448;28;20425;-65
2022/12/23 04:22:11;;;;;;;9.90;7.43;;;1.80;99.90;;;;;;5017743;28;20564;-65
2022/12/23 04:24:38;;;;;;;11.00;6.43;;;1.80;99.90;;;;;;5033121;28;20422;-65
2022/12/23 04:27:04;;;;;;;11.50;9.07;;;1.90;99.90;;;;;;5012315;28;20430;-65
2022/12/23 04:29:29;;;;;;;9.47;7.27;;;2.00;99.90;;;;;;5029815;28;20490;-65
2022/12/23 04:31:55;;;;;;;10.80;8.37;;;2.00;99.90;;;;;;5000488;28;20525;-66
2022/12/23 04:34:21;;;;;;;11.47;7.43;;;2.00;99.90;;;;;;4994754;28;20255;-65
2022/12/23 04:36:46;;;;;;;10.80;7.93;;;2.00;99.90;;;;;;5001417;28;20253;-65
2022/12/23 04:39:12;;;;;;;11.07;8.03;;;2.10;99.90;;;;;;5025000;28;20218;-65
2022/12/23 04:41:38;;;;;;;9.93;7.83;;;2.10;99.90;;;;;;5004822;28;20187;-65
2022/12/23 04:44:04;;;;;;;8.87;7.50;;;2.10;99.90;;;;;;5002303;28;20223;-65
2022/12/23 04:46:29;;;;;;;9.07;7.53;;;2.10;99.90;;;;;;5008658;28;20231;-65
2022/12/23 04:48:55;;;;;;;8.50;7.50;;;2.00;99.90;;;;;;5000884;28;20191;-65
2022/12/23 04:51:21;;;;;;;10.73;7.50;;;2.00;99.80;;;;;;5045862;28;20190;-65
2022/12/23 04:53:46;;;;;;;9.37;6.53;;;2.00;99.90;;;;;;4995884;28;20199;-65
2022/12/23 04:56:12;;;;;;;12.37;8.57;;;2.00;99.90;;;;;;5021674;28;20238;-65
2022/12/23 04:58:38;;;;;;;9.23;7.33;;;2.00;99.90;;;;;;4991208;28;20216;-66
2022/12/23 05:01:05;;;;;;;12.03;7.40;;;2.00;99.90;;;;;;4998403;28;20226;-66
2022/12/23 05:03:31;;;;;;;8.93;7.30;;;2.00;99.90;;;;;;5021452;28;20284;-66
2022/12/23 05:05:57;;;;;;;9.30;6.83;;;2.00;99.90;;;;;;5032654;28;20539;-65
2022/12/23 05:08:23;;;;;;;8.87;6.73;;;2.10;99.90;;;;;;5017716;28;20184;-66
2022/12/23 05:10:49;;;;;;;8.90;6.40;;;2.10;99.90;;;;;;5010373;28;20200;-66
2022/12/23 05:13:14;;;;;;;8.83;7.00;;;2.10;99.90;;;;;;5000742;28;20215;-66
2022/12/23 05:15:48;;;;;;;8.87;7.30;;;2.10;99.90;;;;;;5009118;28;20257;-65
2022/12/23 05:18:13;;;;;;;11.57;8.47;;;2.20;99.90;;;;;;5031571;28;20654;-66
2022/12/23 05:20:39;;;;;;;14.83;9.40;;;2.20;99.90;;;;;;5022357;28;20506;-66
2022/12/23 05:23:05;;;;;;;15.03;9.50;;;2.20;99.90;;;;;;5028491;28;20203;-66
2022/12/23 05:25:35;;;;;;;15.87;10.37;;;2.20;99.90;;;;;;4991411;28;20460;-66
2022/12/23 05:28:01;;;;;;;16.90;10.80;;;2.20;99.90;;;;;;5019077;28;20176;-66
2022/12/23 05:30:27;;;;;;;15.50;9.27;;;2.20;99.90;;;;;;5014266;28;20443;-65
2022/12/23 05:32:53;;;;;;;14.93;9.13;;;2.20;99.90;;;;;;4966594;28;20430;-67
2022/12/23 05:35:19;;;;;;;15.93;9.27;;;2.30;99.90;;;;;;5080003;28;20187;-66
2022/12/23 05:37:45;;;;;;;13.27;9.40;;;2.30;99.90;;;;;;5043775;28;20429;-66
2022/12/23 05:40:11;;;;;;;14.60;9.87;;;2.30;99.90;;;;;;5046178;28;20433;-65
2022/12/23 05:42:37;;;;;;;15.37;9.43;;;2.30;99.90;;;;;;5028999;28;20199;-65
2022/12/23 05:45:03;;;;;;;13.80;9.17;;;2.30;99.90;;;;;;5026614;28;20206;-65
2022/12/23 05:47:28;;;;;;;11.50;8.63;;;2.30;99.90;;;;;;5037733;28;20281;-65
2022/12/23 05:49:54;;;;;;;13.13;9.47;;;2.30;99.90;;;;;;5025585;28;20414;-66
2022/12/23 05:52:20;;;;;;;11.43;9.53;;;2.20;99.90;;;;;;5032129;28;20285;-65
2022/12/23 05:54:45;;;;;;;16.47;9.83;;;2.20;99.90;;;;;;5046049;28;20191;-65
2022/12/23 05:57:11;;;;;;;13.33;9.60;;;2.10;99.80;;;;;;5035738;28;20277;-65
2022/12/23 05:59:37;;;;;;;12.50;9.73;;;2.10;99.90;;;;;;5036036;28;20292;-65
2022/12/23 06:02:03;;;;;;;16.57;9.83;;;2.10;99.90;;;;;;5032684;28;20215;-66
2022/12/23 06:04:28;;;;;;;17.33;10.57;;;2.10;99.90;;;;;;5035724;28;20183;-61
2022/12/23 06:06:54;;;;;;;14.23;9.87;;;2.10;99.90;;;;;;5019338;28;20290;-61
2022/12/23 06:09:20;;;;;;;13.47;9.43;;;2.10;99.90;;;;;;5018782;28;20189;-61
2022/12/23 06:11:46;;;;;;;15.80;10.00;;;2.10;99.90;;;;;;5029418;28;20190;-61
2022/12/23 06:14:11;;;;;;;14.63;10.50;;;2.20;99.90;;;;;;5050338;28;20186;-61
2022/12/23 06:16:37;;;;;;;12.33;9.43;;;2.10;99.90;;;;;;5033674;28;20182;-61
2022/12/23 06:19:03;;;;;;;13.20;9.50;;;2.10;99.90;;;;;;5015584;28;20197;-61
2022/12/23 06:21:29;;;;;;;13.17;9.57;;;2.10;99.90;;;;;;5031984;28;20186;-61
2022/12/23 06:23:54;;;;;;;13.53;9.03;;;2.00;99.60;;;;;;5034546;28;20301;-61
2022/12/23 06:26:20;;;;;;;16.40;9.53;;;2.00;99.90;;;;;;5017925;28;20241;-61
2022/12/23 06:28:46;;;;;;;12.53;9.20;;;2.00;99.90;;;;;;5030494;28;20202;-61
2022/12/23 06:31:11;;;;;;;11.20;8.30;;;2.00;99.90;;;;;;5026842;28;20654;-62
2022/12/23 06:33:37;;;;;;;11.53;9.50;;;2.00;99.90;;;;;;5016108;28;20226;-61
2022/12/23 06:36:03;;;;;;;14.07;9.47;;;2.00;99.80;;;;;;5016266;28;20194;-62
2022/12/23 06:38:29;;;;;;;11.03;8.97;;;2.00;99.80;;;;;;5048968;28;20179;-62
2022/12/23 06:40:55;;;;;;;11.50;9.33;;;1.90;99.10;;;;;;5034427;28;20437;-61
2022/12/23 06:43:21;;;;;;;10.10;8.47;;;1.80;99.20;;;;;;5031884;28;20238;-61
2022/12/23 06:45:47;;;;;;;14.60;8.93;;;1.80;99.50;;;;;;5020340;28;20234;-61
2022/12/23 06:48:14;;;;;;;14.37;9.83;;;1.80;99.90;;;;;;5041394;28;20190;-61
2022/12/23 06:50:39;;;;;;;11.17;9.33;;;1.80;99.80;;;;;;5035035;28;20512;-61
2022/12/23 06:53:05;;;;;;;14.77;9.37;;;1.90;99.90;;;;;;5033547;28;20428;-61
2022/12/23 06:55:31;;;;;;;12.27;9.23;;;1.90;99.90;;;;;;5038130;28;20539;-61
2022/12/23 06:57:57;;;;;;;12.40;8.87;;;1.90;99.90;;;;;;5048502;28;20245;-61
2022/12/23 07:00:23;;;;;;;14.90;9.93;;;1.80;99.80;;;;;;5035140;28;20473;-61
2022/12/23 07:02:48;;;;;;;11.80;8.50;;;1.80;99.70;;;;;;5080811;28;20202;-61
2022/12/23 07:05:15;;;;;;;13.03;8.83;;;1.90;99.90;;;;;;5040480;28;20187;-61
2022/12/23 07:07:41;;;;;;;12.97;9.83;;;1.80;99.90;;;;;;5063828;28;20196;-61
2022/12/23 07:10:08;;;;;;;11.27;9.60;;;1.80;99.60;;;;;;5035276;28;20437;-61
2022/12/23 07:12:33;;;;;;;12.70;9.23;;;1.80;99.90;;;;;;5036760;28;20194;-61
2022/12/23 07:14:59;;;;;;;13.13;9.20;;;1.80;99.70;;;;;;5035582;28;20453;-61
2022/12/23 07:17:25;;;;;;;14.67;10.43;;;1.70;99.70;;;;;;5049640;28;20191;-61
2022/12/23 07:19:50;;;;;;;11.43;9.03;;;1.70;99.50;;;;;;5021078;28;20328;-61
2022/12/23 07:22:16;;;;;;;12.47;9.07;;;1.70;99.80;;;;;;5027277;28;20210;-61
2022/12/23 07:24:42;;;;;;;12.40;8.80;;;1.70;99.90;;;;;;5047005;28;20198;-61
2022/12/23 07:27:08;;;;;;;10.77;9.10;;;1.70;99.50;;;;;;5046782;28;20179;-61
2022/12/23 07:29:34;;;;;;;12.93;9.70;;;1.70;99.70;;;;;;5029405;28;20190;-61
2022/12/23 07:32:01;;;;;;;11.87;9.10;;;1.70;99.40;;;;;;5036937;28;20482;-61
2022/12/23 07:34:26;;;;;;;12.73;9.73;;;1.70;99.70;;;;;;5035247;28;20202;-61
2022/12/23 07:36:52;;;;;;;10.37;8.27;;;1.70;99.70;;;;;;5053459;28;20546;-61
2022/12/23 07:39:18;;;;;;;11.90;8.80;;;1.70;99.80;;;;;;5024513;28;20187;-61
2022/12/23 07:41:44;;;;;;;13.50;8.97;;;1.70;99.90;;;;;;5033027;28;20187;-61
2022/12/23 07:44:09;;;;;;;10.83;8.73;;;1.70;99.90;;;;;;5039507;28;20191;-61
2022/12/23 07:46:35;;;;;;;10.57;8.43;;;1.70;99.90;;;;;;5053264;28;20230;-61
2022/12/23 07:49:01;;;;;;;14.20;9.27;;;1.70;99.90;;;;;;5034140;28;20191;-61
2022/12/23 07:51:27;;;;;;;11.27;8.87;;;1.70;99.90;;;;;;5049562;28;20224;-61
2022/12/23 07:53:52;;;;;;;13.47;9.03;;;1.70;99.90;;;;;;5017449;28;20221;-61
2022/12/23 07:56:18;;;;;;;19.23;13.53;;;1.80;99.90;;;;;;5035766;28;20234;-61
2022/12/23 07:58:49;;;;;;;13.37;9.30;;;1.80;99.90;;;;;;5042000;28;20244;-61
2022/12/23 08:01:15;;;;;;;13.60;9.93;;;1.90;99.90;;;;;;5023402;28;20432;-61
2022/12/23 08:03:40;;;;;;;11.30;8.50;;;1.90;99.90;;;;;;5031088;28;20473;-61
2022/12/23 08:06:11;;;;;;;13.67;9.63;;;2.00;99.90;;;;;;5049355;28;20505;-61
2022/12/23 08:08:38;;;;;;;14.30;9.70;;;2.00;99.90;;;;;;5052230;28;20273;-61
2022/12/23 08:11:06;;;;;;;10.87;8.43;;;2.00;99.90;;;;;;5070759;28;20425;-61
2022/12/23 08:13:33;;;;;;;9.23;7.07;;;2.10;99.90;;;;;;5035090;28;20445;-61
2022/12/23 08:16:00;;;;;;;10.03;7.13;;;2.10;99.90;;;;;;5049181;28;20433;-61
2022/12/23 08:18:28;;;;;;;13.20;9.73;;;2.20;99.90;;;;;;5052085;28;20464;-61
2022/12/23 08:21:00;;;;;;;12.53;9.30;;;2.20;99.90;;;;;;5053329;28;20431;-61
2022/12/23 08:23:27;;;;;;;18.47;11.30;;;2.20;99.90;;;;;;5051000;28;20495;-61
2022/12/23 08:26:05;;;;;;;13.77;10.80;;;2.20;99.90;;;;;;5028440;28;20436;-61
2022/12/23 08:28:32;;;;;;;14.97;9.90;;;2.30;99.90;;;;;;5051635;28;20502;-61
2022/12/23 08:31:13;;;;;;;11.17;8.37;;;2.30;99.90;;;;;;5073125;28;20456;-61
2022/12/23 08:33:41;;;;;;;10.83;8.03;;;2.30;99.90;;;;;;5038529;28;20445;-61
2022/12/23 08:36:14;;;;;;;11.10;8.83;;;2.40;99.90;;;;;;5051319;28;20417;-61
2022/12/23 08:38:40;;;;;;;12.17;9.10;;;2.40;99.90;;;;;;5052224;28;20483;-60
2022/12/23 08:41:15;;;;;;;13.57;9.43;;;2.50;99.90;;;;;;5031654;28;20429;-60
2022/12/23 08:43:41;;;;;;;11.67;8.67;;;2.50;99.90;;;;;;5069064;28;20216;-60
2022/12/23 08:46:07;;;;;;;14.93;9.57;;;2.50;99.90;;;;;;5035065;28;20465;-60
2022/12/23 08:48:34;;;;;;;10.80;8.47;;;2.50;99.70;;;;;;5032123;28;20448;-60
2022/12/23 08:51:07;;;;;;;14.50;9.73;;;2.50;99.90;;;;;;5031984;28;20193;-60
2022/12/23 08:53:35;;;;;;;11.50;8.70;;;2.50;99.90;;;;;;5037314;28;20449;-60
2022/12/23 08:56:03;;;;;;;10.87;8.63;;;2.60;99.90;;;;;;5050858;28;20420;-61
2022/12/23 08:58:29;;;;;;;13.97;10.10;;;2.70;99.90;;;;;;5079059;28;20429;-61
2022/12/23 09:00:55;;;;;;;12.80;9.90;;;2.70;99.90;;;;;;5047263;28;20448;-61
2022/12/23 09:03:21;;;;;;;14.57;10.67;;;2.80;99.90;;;;;;5049257;28;20279;-61
2022/12/23 09:05:46;;;;;;;13.63;9.67;;;2.80;99.90;;;;;;5034261;28;20198;-61
2022/12/23 09:08:12;;;;;;;9.50;7.53;;;2.90;99.90;;;;;;5017150;28;20193;-61
2022/12/23 09:10:42;;;;;;;11.57;8.37;;;2.90;99.90;;;;;;5048001;28;20186;-61
2022/12/23 09:13:10;;;;;;;7.40;6.60;;;3.00;99.90;;;;;;5045307;28;20182;-61
2022/12/23 09:15:43;;;;;;;10.93;7.47;;;3.00;99.90;;;;;;5045388;28;20540;-61
2022/12/23 09:18:10;;;;;;;12.03;8.83;;;3.10;99.90;;;;;;5046421;28;20435;-61
2022/12/23 09:20:36;;;;;;;11.27;9.13;;;3.10;99.90;;;;;;5079751;28;20533;-61
2022/12/23 09:23:02;;;;;;;10.03;7.57;;;3.30;99.90;;;;;;5061087;28;20541;-61
2022/12/23 09:25:28;;;;;;;11.07;8.13;;;3.30;99.90;;;;;;5081280;28;20201;-61
2022/12/23 09:27:54;;;;;;;8.73;6.67;;;3.30;99.90;;;;;;5050093;28;20418;-61
2022/12/23 09:30:19;;;;;;;11.10;8.00;;;3.40;99.90;;;;;;5032531;28;20178;-61
2022/12/23 09:32:45;;;;;;;8.50;7.17;;;3.50;99.90;;;;;;5038339;28;20215;-61
2022/12/23 09:35:11;;;;;;;9.13;7.07;;;3.50;99.90;;;;;;5027698;28;20278;-61
2022/12/23 09:37:36;;;;;;;10.47;8.63;;;3.50;99.90;;;;;;5010037;28;20201;-61
2022/12/23 09:40:03;;;;;;;11.50;9.00;;;3.50;99.70;;;;;;5016331;28;20194;-61
2022/12/23 09:43:06;;;;;;;11.43;8.47;;;3.60;99.30;;;;;;5033988;28;20214;-61
2022/12/23 09:45:53;;;;;;;13.73;8.33;;;3.70;99.20;;;;;;5064725;28;20486;-61
2022/12/23 09:48:24;;;;;;;9.53;8.03;;;3.80;99.30;;;;;;5048866;28;20437;-61
2022/12/23 09:50:50;;;;;;;8.70;6.80;;;3.90;99.20;;;;;;5063622;28;20431;-61
2022/12/23 09:53:25;;;;;;;10.27;7.67;;;3.90;99.60;;;;;;5049049;28;20469;-61
2022/12/23 09:55:56;;;;;;;11.77;8.80;;;4.00;99.70;;;;;;5029252;28;20436;-61
2022/12/23 09:58:55;;;;;;;8.10;7.00;;;4.00;99.10;;;;;;5046565;28;20441;-61
2022/12/23 10:01:26;;;;;;;8.33;6.87;;;4.00;99.40;;;;;;5045748;28;20443;-61
2022/12/23 10:04:16;;;;;;;9.17;8.00;;;4.10;99.30;;;;;;5049734;28;20539;-61
2022/12/23 10:06:49;;;;;;;9.30;7.63;;;4.20;99.00;;;;;;5049546;28;20515;-61
2022/12/23 10:09:16;;;;;;;10.93;8.33;;;4.20;98.10;;;;;;5073325;28;20413;-61
2022/12/23 10:11:45;;;;;;;9.73;7.53;;;4.30;98.20;;;;;;5084308;28;20446;-61
2022/12/23 10:14:21;;;;;;;9.37;8.27;;;4.30;98.40;;;;;;5050175;28;20447;-61
2022/12/23 10:16:52;;;;;;;9.33;6.93;;;4.30;98.50;;;;;;5049334;28;20535;-61
2022/12/23 10:19:24;;;;;;;10.43;9.00;;;4.40;98.90;;;;;;5046083;28;20434;-61
2022/12/23 10:22:09;;;;;;;8.70;7.60;;;4.50;99.20;;;;;;5047038;28;20439;-61
2022/12/23 10:24:43;;;;;;;8.33;7.40;;;4.50;98.20;;;;;;5059415;28;20463;-61
2022/12/23 10:27:28;;;;;;;11.13;8.93;;;4.60;98.60;;;;;;5049150;28;20424;-61
2022/12/23 10:29:55;;;;;;;9.13;7.37;;;4.70;98.70;;;;;;5047771;28;20445;-61
2022/12/23 10:32:32;;;;;;;28.57;20.10;;;4.70;99.10;;;;;;5045514;28;20474;-61
2022/12/23 10:35:26;;;;;;;32.63;20.83;;;5.00;97.80;;;;;;5047670;28;20426;-61
2022/12/23 10:38:10;;;;;;;29.03;20.93;;;5.10;96.80;;;;;;5049574;28;20435;-61
2022/12/23 10:40:39;;;;;;;27.63;22.17;;;5.30;96.30;;;;;;5053055;28;20433;-61
2022/12/23 10:43:16;;;;;;;27.63;20.93;;;5.50;92.80;;;;;;5045284;28;20464;-61
2022/12/23 10:46:01;;;;;;;27.93;20.47;;;5.60;93.20;;;;;;5049059;28;20539;-61
2022/12/23 10:48:48;;;;;;;26.07;18.03;;;5.60;93.30;;;;;;5052162;28;20416;-61
2022/12/23 10:51:27;;;;;;;25.40;18.50;;;5.70;94.90;;;;;;5034366;28;20426;-61
2022/12/23 10:53:58;;;;;;;19.83;16.57;;;5.70;95.40;;;;;;5064431;28;20429;-61
2022/12/23 10:56:23;;;;;;;20.03;16.27;;;5.80;95.90;;;;;;5059864;28;20441;-61
2022/12/23 10:58:53;;;;;;;20.70;15.63;;;5.90;91.40;;;;;;5038272;28;20532;-61
2022/12/23 11:01:20;;;;;;;18.50;14.07;;;6.10;91.80;;;;;;5052044;28;20194;-61
2022/12/23 11:03:55;;;;;;;23.03;16.90;;;6.10;93.10;;;;;;5033511;28;20457;-61
2022/12/23 11:06:22;;;;;;;20.03;15.50;;;6.20;91.30;;;;;;5052633;28;20472;-61
2022/12/23 11:08:48;;;;;;;20.80;16.23;;;6.20;91.60;;;;;;5070615;28;20437;-61
2022/12/23 11:11:14;;;;;;;20.00;15.77;;;6.20;91.10;;;;;;5039034;28;20432;-60
2022/12/23 11:13:43;;;;;;;18.87;15.63;;;6.30;92.30;;;;;;5053285;28;20445;-61
2022/12/23 11:16:25;;;;;;;23.40;17.07;;;6.40;93.40;;;;;;5044890;28;20182;-61
2022/12/23 11:19:03;;;;;;;16.73;14.90;;;6.40;93.60;;;;;;5054460;28;20433;-62
2022/12/23 11:21:31;;;;;;;22.97;17.53;;;6.50;94.20;;;;;;5054490;28;20420;-62
2022/12/23 11:24:17;;;;;;;19.43;15.83;;;6.50;90.60;;;;;;5053359;28;20529;-62
2022/12/23 11:26:46;;;;;;;22.63;16.30;;;6.50;90.90;;;;;;5036786;28;20413;-62
2022/12/23 11:29:37;;;;;;;20.23;16.00;;;6.60;91.30;;;;;;5049673;28;20512;-62
2022/12/23 11:32:26;;;;;;;20.47;15.17;;;6.60;89.70;;;;;;5050654;28;20472;-62
2022/12/23 11:34:53;;;;;;;21.27;15.23;;;6.70;91.60;;;;;;5083503;28;20444;-62
2022/12/23 11:37:45;;;;;;;17.23;14.63;;;6.70;90.80;;;;;;5054185;28;20428;-62
2022/12/23 11:40:29;;;;;;;19.33;14.40;;;6.80;87.60;;;;;;5030075;28;20440;-62
2022/12/23 11:43:03;;;;;;;18.37;14.07;;;6.90;90.80;;;;;;5051160;28;20515;-62
2022/12/23 11:45:33;;;;;;;17.90;14.47;;;6.90;89.50;;;;;;5046277;28;20421;-62
2022/12/23 11:47:59;;;;;;;15.07;13.33;;;7.00;90.10;;;;;;5051263;28;20521;-62
2022/12/23 11:50:39;;;;;;;15.40;12.30;;;7.00;90.00;;;;;;5034879;28;20516;-62
2022/12/23 11:53:23;;;;;;;17.50;13.17;;;7.20;91.80;;;;;;5033622;28;20445;-62
2022/12/23 11:56:05;;;;;;;17.53;13.20;;;7.20;90.60;;;;;;5054895;28;20431;-62
2022/12/23 11:58:39;;;;;;;16.63;11.77;;;7.50;87.10;;;;;;5049138;28;20466;-62
2022/12/23 12:01:19;;;;;;;14.27;11.63;;;7.50;89.50;;;;;;5052551;28;20423;-62
2022/12/23 12:04:15;;;;;;;14.20;12.27;;;7.60;90.10;;;;;;5050213;28;20464;-62
2022/12/23 12:06:43;;;;;;;17.07;14.00;;;7.80;91.70;;;;;;5051873;28;20187;-62
2022/12/23 12:09:11;;;;;;;16.60;13.17;;;7.90;92.60;;;;;;5052977;28;20244;-62
2022/12/23 12:11:45;;;;;;;15.40;12.97;;;8.00;92.30;;;;;;5019018;28;20187;-62
2022/12/23 12:14:25;;;;;;;19.50;13.37;;;8.20;92.60;;;;;;5044539;28;20190;-62
2022/12/23 12:17:25;;;;;;;17.63;13.40;;;8.40;88.70;;;;;;5053028;28;20189;-62
2022/12/23 12:20:17;;;;;;;14.37;12.23;;;8.60;84.00;;;;;;5052809;28;20222;-62
2022/12/23 12:22:51;;;;;;;18.57;12.67;;;8.80;85.70;;;;;;5044564;28;20213;-63
2022/12/23 12:25:21;;;;;;;13.80;11.27;;;9.00;83.00;;;;;;5043049;28;20185;-62
2022/12/23 12:28:00;;;;;;;14.73;12.00;;;9.00;85.30;;;;;;5053179;28;20269;-61
2022/12/23 12:30:33;;;;;;;15.27;12.40;;;9.20;84.40;;;;;;5046246;28;20181;-62
2022/12/23 12:33:05;;;;;;;13.60;11.70;;;9.30;83.80;;;;;;5052207;28;20286;-62
2022/12/23 12:35:42;;;;;;;14.73;12.13;;;9.40;79.60;;;;;;5052161;28;20194;-62
2022/12/23 12:38:26;;;;;;;13.43;12.03;;;9.40;82.90;;;;;;5051441;28;20186;-62
2022/12/23 12:41:13;;;;;;;14.00;12.27;;;9.40;84.70;;;;;;5052378;28;20194;-62
2022/12/23 12:43:51;;;;;;;14.90;12.63;;;9.50;86.30;;;;;;5052071;28;20285;-62
2022/12/23 12:46:23;;;;;;;18.17;14.17;;;9.60;83.80;;;;;;5052300;28;20222;-63
2022/12/23 12:49:04;;;;;;;18.33;13.70;;;9.70;82.40;;;;;;5046346;28;20181;-63
2022/12/23 12:51:45;;;;;;;17.03;15.23;;;9.70;82.80;;;;;;5083324;28;20178;-63
2022/12/23 12:54:38;;;;;;;16.50;14.70;;;9.80;79.80;;;;;;5050909;28;20189;-60
2022/12/23 12:57:05;;;;;;;15.40;13.80;;;9.90;73.20;;;;;;5048226;28;20228;-62
2022/12/23 12:59:37;;;;;;;20.53;14.50;;;10.00;74.60;;;;;;5024893;28;20222;-62
2022/12/23 13:02:36;;;;;;;14.63;12.50;;;10.00;76.90;;;;;;5043253;28;20190;-62
2022/12/23 13:05:15;;;;;;;18.03;14.30;;;10.00;80.90;;;;;;5055286;28;20175;-63
2022/12/23 13:08:02;;;;;;;17.93;13.90;;;10.00;78.70;;;;;;5056576;28;20225;-63
2022/12/23 13:11:02;;;;;;;15.70;12.40;;;10.10;81.80;;;;;;5043112;28;20178;-62
2022/12/23 13:14:03;;;;;;;18.03;14.33;;;10.10;76.70;;;;;;5042813;28;20190;-61
2022/12/23 13:16:34;;;;;;;15.40;13.27;;;10.10;78.80;;;;;;5010914;28;20202;-61
2022/12/23 13:19:09;;;;;;;12.53;11.20;;;10.10;80.50;;;;;;5051417;28;20218;-61
2022/12/23 13:21:53;;;;;;;14.47;11.70;;;10.20;80.20;;;;;;5051908;28;20209;-61
2022/12/23 13:24:31;;;;;;;14.07;10.70;;;10.40;82.70;;;;;;5052046;28;20190;-61
2022/12/23 13:27:15;;;;;;;17.13;12.67;;;10.50;83.60;;;;;;5048139;28;20286;-61
2022/12/23 13:29:44;;;;;;;14.70;11.50;;;10.50;77.80;;;;;;5043218;28;20191;-61
2022/12/23 13:32:41;;;;;;;14.47;11.50;;;10.60;81.40;;;;;;5045115;28;20262;-62